Time;durP1;ratioP1;P1;durP2;ratioP2;P2;SDS_P1;SDS_P2;PMS_P1;PMS_P2;Temp;Humidity;BMP_temperature;BMP_pressure;BME280_temperature;BME280_humidity;BME280_pressure;Samples;Min_cycle;Max_cycle;Signal;HPM_P1;HPM_P2
2022/01/23 00:01:49;;;;;;;12.45;8.13;;;2.70;99.90;;;;;;5012202;28;20288;-74
2022/01/23 00:04:17;;;;;;;8.80;7.32;;;2.70;99.90;;;;;;5012043;28;20226;-74
2022/01/23 00:06:47;;;;;;;8.48;6.70;;;2.70;99.90;;;;;;5012248;28;20208;-73
2022/01/23 00:09:14;;;;;;;10.02;7.15;;;2.80;99.90;;;;;;5012372;28;20201;-73
2022/01/23 00:11:47;;;;;;;9.20;6.85;;;2.80;99.90;;;;;;5011858;28;20207;-74
2022/01/23 00:17:17;;;;;;;8.30;6.18;;;2.70;99.90;;;;;;5012011;28;20747;-74
2022/01/23 00:19:45;;;;;;;9.07;5.90;;;2.60;99.90;;;;;;5011179;28;20222;-73
2022/01/23 00:22:13;;;;;;;9.55;6.68;;;2.60;99.90;;;;;;5011210;28;20206;-74
2022/01/23 00:30:26;;;;;;;11.90;7.63;;;2.60;99.90;;;;;;5012043;28;20325;-73
2022/01/23 00:32:53;;;;;;;11.65;7.10;;;2.60;99.90;;;;;;5011252;28;20202;-74
2022/01/23 00:35:20;;;;;;;9.18;7.13;;;2.50;99.90;;;;;;5011505;28;20230;-73
2022/01/23 00:37:49;;;;;;;11.30;6.68;;;2.50;99.90;;;;;;5011641;28;20910;-74
2022/01/23 00:40:17;;;;;;;8.10;6.30;;;2.50;99.90;;;;;;5011422;28;20840;-73
2022/01/23 00:42:44;;;;;;;8.65;7.10;;;2.50;99.90;;;;;;5010858;28;20889;-74
2022/01/23 00:45:26;;;;;;;7.35;6.03;;;2.50;99.90;;;;;;5011267;28;20226;-73
2022/01/23 00:47:56;;;;;;;9.55;6.25;;;2.50;99.90;;;;;;5011790;28;20202;-73
2022/01/23 00:50:23;;;;;;;9.55;6.80;;;2.60;99.90;;;;;;5011985;28;20199;-74
2022/01/23 00:52:52;;;;;;;7.00;6.18;;;2.60;99.90;;;;;;5010538;28;20202;-73
2022/01/23 00:55:18;;;;;;;7.00;5.18;;;2.60;99.90;;;;;;5011486;28;20232;-74
2022/01/23 00:57:45;;;;;;;9.07;6.53;;;2.70;99.90;;;;;;5011144;28;20277;-73
2022/01/23 01:00:13;;;;;;;7.75;5.93;;;2.60;99.90;;;;;;5011308;28;20698;-74
2022/01/23 01:02:40;;;;;;;7.22;5.60;;;2.70;99.90;;;;;;5010553;28;20229;-73
2022/01/23 01:05:08;;;;;;;9.10;6.72;;;2.70;99.90;;;;;;5011177;28;20274;-73
2022/01/23 01:07:35;;;;;;;7.93;6.20;;;2.70;99.90;;;;;;5011217;28;20206;-73
2022/01/23 01:10:09;;;;;;;6.80;5.68;;;2.70;99.90;;;;;;5010941;28;20670;-74
2022/01/23 01:12:40;;;;;;;8.48;6.05;;;2.70;99.90;;;;;;5010738;28;20214;-73
2022/01/23 01:15:33;;;;;;;9.23;6.32;;;2.70;99.90;;;;;;5010865;28;20258;-73
2022/01/23 01:31:46;;;;;;;9.45;5.95;;;2.70;99.90;;;;;;5010646;28;20196;-74
2022/01/23 01:34:18;;;;;;;8.88;6.32;;;2.60;99.90;;;;;;5010231;28;20234;-73
2022/01/23 01:36:49;;;;;;;10.27;6.18;;;2.60;99.90;;;;;;5010685;28;20211;-73
2022/01/23 01:39:18;;;;;;;8.70;6.03;;;2.60;99.90;;;;;;5010537;28;20305;-73
2022/01/23 01:41:47;;;;;;;9.73;6.90;;;2.50;99.90;;;;;;5010509;28;20214;-73
2022/01/23 01:44:15;;;;;;;8.68;6.15;;;2.60;99.90;;;;;;5010344;28;20614;-72
2022/01/23 01:46:43;;;;;;;7.53;6.13;;;2.60;99.90;;;;;;5010886;28;20689;-73
2022/01/23 01:49:10;;;;;;;9.90;6.35;;;2.50;99.90;;;;;;5010888;28;20558;-74
2022/01/23 01:51:38;;;;;;;7.25;5.90;;;2.50;99.90;;;;;;5010291;28;20213;-73
2022/01/23 01:54:11;;;;;;;9.88;6.20;;;2.50;99.90;;;;;;5010194;28;20887;-74
2022/01/23 01:56:47;;;;;;;8.23;5.63;;;2.50;99.90;;;;;;5010257;28;20206;-73
2022/01/23 01:59:33;;;;;;;7.70;5.75;;;2.60;99.90;;;;;;5010568;28;20213;-74
2022/01/23 02:10:21;;;;;;;7.90;5.65;;;2.60;99.90;;;;;;5010877;28;20193;-73
2022/01/23 02:15:58;;;;;;;9.93;5.45;;;2.60;99.90;;;;;;5007446;28;20254;-74
2022/01/23 02:22:24;;;;;;;7.47;5.13;;;2.60;99.90;;;;;;5010683;28;20225;-73
2022/01/23 02:24:22;;;;;;;7.75;5.75;;;2.60;99.90;;;;;;5009845;28;20790;-74
2022/01/23 02:51:54;;;;;;;8.02;5.75;;;2.60;99.90;;;;;;5013524;28;20200;-72
2022/01/23 02:54:42;;;;;;;6.85;5.80;;;2.60;99.90;;;;;;5013123;28;20309;-73
2022/01/23 02:57:10;;;;;;;6.63;4.93;;;2.50;99.90;;;;;;5013576;28;20202;-74
2022/01/23 02:59:38;;;;;;;8.25;6.80;;;2.50;99.90;;;;;;5013297;28;20214;-74
2022/01/23 03:02:13;;;;;;;9.15;5.55;;;2.50;99.90;;;;;;5012888;28;20209;-74
2022/01/23 03:04:49;;;;;;;6.65;5.35;;;2.50;99.90;;;;;;5013091;28;20745;-74
2022/01/23 03:07:34;;;;;;;7.00;5.35;;;2.60;99.90;;;;;;5013208;28;20210;-74
2022/01/23 03:10:05;;;;;;;6.68;5.30;;;2.60;99.90;;;;;;5013738;28;20569;-73
2022/01/23 03:15:21;;;;;;;7.10;6.35;;;2.50;99.90;;;;;;5011657;28;20214;-74
2022/01/23 03:26:21;;;;;;;10.02;7.65;;;2.60;99.90;;;;;;5012732;28;20213;-74
2022/01/23 03:29:04;;;;;;;9.15;7.10;;;2.60;99.90;;;;;;5012843;28;20238;-73
2022/01/23 03:31:38;;;;;;;8.68;6.10;;;2.60;99.90;;;;;;5012714;28;20606;-74
2022/01/23 03:34:05;;;;;;;10.48;6.93;;;2.60;99.90;;;;;;5012195;28;20205;-74
2022/01/23 03:36:32;;;;;;;8.70;6.35;;;2.60;99.90;;;;;;5012251;28;20418;-74
2022/01/23 03:38:59;;;;;;;9.05;5.93;;;2.70;99.90;;;;;;5012340;28;20210;-73
2022/01/23 03:41:27;;;;;;;9.40;6.43;;;2.60;99.90;;;;;;5012482;28;20583;-73
2022/01/23 03:43:54;;;;;;;9.18;6.10;;;2.70;99.90;;;;;;5012106;28;20202;-73
2022/01/23 03:46:33;;;;;;;7.55;5.25;;;2.70;99.90;;;;;;5012905;28;20205;-75
2022/01/23 03:51:44;;;;;;;7.10;5.50;;;2.60;99.90;;;;;;5012571;28;20198;-74
2022/01/23 03:54:11;;;;;;;7.95;5.53;;;2.60;99.90;;;;;;5011604;28;20203;-74
2022/01/23 03:56:39;;;;;;;8.80;5.97;;;2.60;99.90;;;;;;5012175;28;20209;-72
2022/01/23 03:59:06;;;;;;;8.50;5.97;;;2.60;99.90;;;;;;5012207;28;20202;-73
2022/01/23 04:01:32;;;;;;;8.23;6.03;;;2.50;99.90;;;;;;5011839;28;20202;-74
2022/01/23 04:04:03;;;;;;;7.00;5.40;;;2.60;99.90;;;;;;5011405;28;20676;-74
2022/01/23 04:06:30;;;;;;;7.78;5.70;;;2.60;99.90;;;;;;5011804;28;20688;-74
2022/01/23 04:08:56;;;;;;;7.72;5.82;;;2.60;99.90;;;;;;5012142;28;20202;-74
2022/01/23 04:11:23;;;;;;;10.40;5.85;;;2.60;99.90;;;;;;5011795;28;20203;-73
2022/01/23 04:13:57;;;;;;;9.43;5.82;;;2.50;99.90;;;;;;5011352;28;20207;-74
2022/01/23 04:16:48;;;;;;;6.25;5.10;;;2.60;99.90;;;;;;5012178;28;20198;-73
2022/01/23 04:19:31;;;;;;;8.18;5.32;;;2.60;99.90;;;;;;5011761;28;20292;-74
2022/01/23 05:00:59;;;;;;;7.43;5.18;;;2.40;99.90;;;;;;5097878;28;20235;-93
2022/01/23 05:06:21;;;;;;;8.18;5.90;;;2.40;99.90;;;;;;5097691;28;20171;-93
2022/01/23 05:08:48;;;;;;;9.95;6.00;;;2.40;99.90;;;;;;5097860;28;20184;-94
2022/01/23 05:11:15;;;;;;;10.75;5.93;;;2.40;99.90;;;;;;5097677;28;20256;-94
2022/01/23 05:13:42;;;;;;;9.80;6.03;;;2.40;99.90;;;;;;5097578;28;20200;-93
2022/01/23 05:16:10;;;;;;;9.40;6.68;;;2.40;99.90;;;;;;5097854;28;20236;-94
2022/01/23 05:18:39;;;;;;;11.02;7.45;;;2.50;99.90;;;;;;5097691;28;20181;-93
2022/01/23 05:21:32;;;;;;;7.60;6.38;;;2.50;99.90;;;;;;5097499;28;20267;-92
2022/01/23 05:24:01;;;;;;;9.85;6.30;;;2.40;99.90;;;;;;5097468;28;20180;-93
2022/01/23 05:26:28;;;;;;;8.77;6.88;;;2.40;99.90;;;;;;5097711;28;20183;-94
2022/01/23 05:28:54;;;;;;;6.50;5.13;;;2.40;99.90;;;;;;5097603;28;20288;-92
2022/01/23 05:31:21;;;;;;;7.47;6.13;;;2.40;99.90;;;;;;5097139;28;20259;-93
2022/01/23 05:33:49;;;;;;;9.35;6.63;;;2.40;99.90;;;;;;5097141;28;20240;-94
2022/01/23 05:36:17;;;;;;;8.77;6.63;;;2.40;99.90;;;;;;5097098;28;20192;-94
2022/01/23 05:38:43;;;;;;;13.25;7.45;;;2.40;99.90;;;;;;5097311;28;20230;-93
2022/01/23 05:41:10;;;;;;;12.88;7.40;;;2.40;99.90;;;;;;5097106;28;20204;-92
2022/01/23 05:43:37;;;;;;;10.65;7.22;;;2.40;99.90;;;;;;5097073;28;20200;-92
2022/01/23 05:46:04;;;;;;;10.57;6.72;;;2.40;99.90;;;;;;5097281;28;20216;-94
2022/01/23 05:48:31;;;;;;;9.07;6.40;;;2.40;99.90;;;;;;5097259;28;20177;-94
2022/01/23 05:50:59;;;;;;;12.32;6.68;;;2.40;99.90;;;;;;5097235;28;20224;-93
2022/01/23 05:53:26;;;;;;;11.52;7.72;;;2.40;99.90;;;;;;5096988;28;20180;-93
2022/01/23 05:55:53;;;;;;;10.90;6.30;;;2.40;99.90;;;;;;5097180;28;20180;-93
2022/01/23 05:58:20;;;;;;;9.05;6.75;;;2.50;99.90;;;;;;5097391;28;20232;-94
2022/01/23 06:00:47;;;;;;;8.43;6.43;;;2.50;99.90;;;;;;5097193;28;20280;-93
2022/01/23 06:03:14;;;;;;;9.73;7.30;;;2.50;99.90;;;;;;5097052;28;20243;-93
2022/01/23 06:05:41;;;;;;;9.40;6.93;;;2.50;99.90;;;;;;5097111;28;20243;-93
2022/01/23 06:08:09;;;;;;;11.27;8.05;;;2.40;99.90;;;;;;5097065;28;20206;-94
2022/01/23 06:10:53;;;;;;;9.50;6.95;;;2.40;99.90;;;;;;5096957;28;20199;-94
2022/01/23 06:13:20;;;;;;;9.65;6.60;;;2.40;99.90;;;;;;5096676;28;20199;-93
2022/01/23 06:15:46;;;;;;;8.93;6.63;;;2.40;99.90;;;;;;5096957;28;20184;-94
2022/01/23 06:18:13;;;;;;;11.23;7.40;;;2.40;99.90;;;;;;5097504;28;20180;-95
2022/01/23 06:20:40;;;;;;;12.00;7.25;;;2.50;99.90;;;;;;5100662;28;20217;-95
2022/01/23 06:23:09;;;;;;;11.48;6.68;;;2.50;99.90;;;;;;5100725;28;20256;-95
2022/01/23 06:25:37;;;;;;;10.20;7.47;;;2.50;99.90;;;;;;5100736;28;20236;-94
2022/01/23 06:28:05;;;;;;;12.25;8.27;;;2.50;99.90;;;;;;5100638;28;20189;-95
2022/01/23 06:30:33;;;;;;;9.73;7.68;;;2.50;99.90;;;;;;5100602;28;20192;-94
2022/01/23 06:33:00;;;;;;;11.98;7.45;;;2.50;99.90;;;;;;5100391;28;20243;-95
2022/01/23 06:35:28;;;;;;;11.73;7.80;;;2.50;99.90;;;;;;5100510;28;20176;-95
2022/01/23 06:37:55;;;;;;;12.77;7.75;;;2.50;99.90;;;;;;5100231;28;20181;-95
2022/01/23 06:40:23;;;;;;;10.38;7.63;;;2.50;99.90;;;;;;5100469;28;20272;-95
2022/01/23 06:42:50;;;;;;;10.95;7.38;;;2.50;99.90;;;;;;5100533;28;20272;-95
2022/01/23 06:45:23;;;;;;;10.93;7.85;;;2.60;99.90;;;;;;5100314;28;20177;-94
2022/01/23 06:47:50;;;;;;;12.50;7.38;;;2.60;99.90;;;;;;5059221;22;20295;-75
2022/01/23 06:50:17;;;;;;;13.32;7.75;;;2.60;99.90;;;;;;5033438;28;20691;-77
2022/01/23 06:52:44;;;;;;;15.98;7.72;;;2.60;99.90;;;;;;5032896;28;20213;-76
2022/01/23 06:55:10;;;;;;;10.63;8.18;;;2.60;99.90;;;;;;5033284;28;20222;-78
2022/01/23 06:57:38;;;;;;;10.93;7.70;;;2.60;99.90;;;;;;5032728;28;20206;-77
2022/01/23 07:00:07;;;;;;;12.80;8.40;;;2.60;99.90;;;;;;5032987;28;20213;-76
2022/01/23 07:02:34;;;;;;;10.73;7.35;;;2.50;99.90;;;;;;5032497;28;20545;-77
2022/01/23 07:05:00;;;;;;;12.02;7.45;;;2.50;99.90;;;;;;5033104;28;20226;-77
2022/01/23 07:07:27;;;;;;;12.10;7.50;;;2.40;99.90;;;;;;5032488;28;20705;-76
2022/01/23 07:09:54;;;;;;;10.20;6.53;;;2.40;99.90;;;;;;5034020;28;20772;-75
2022/01/23 07:12:20;;;;;;;11.95;7.22;;;2.40;99.90;;;;;;5032813;28;20210;-75
2022/01/23 07:14:48;;;;;;;10.75;7.40;;;2.50;99.90;;;;;;5034366;28;20222;-74
2022/01/23 07:17:15;;;;;;;11.68;8.25;;;2.50;99.90;;;;;;5033626;28;20201;-74
2022/01/23 07:19:42;;;;;;;11.30;7.65;;;2.50;99.90;;;;;;5033681;28;20673;-74
2022/01/23 07:22:09;;;;;;;13.50;8.07;;;2.50;99.90;;;;;;5032880;28;20226;-75
2022/01/23 07:24:35;;;;;;;12.25;8.05;;;2.50;99.90;;;;;;5032786;28;20346;-75
2022/01/23 07:27:12;;;;;;;12.43;9.32;;;2.50;99.90;;;;;;5033537;28;20206;-74
2022/01/23 07:29:40;;;;;;;11.73;7.15;;;2.50;99.90;;;;;;5032470;28;20198;-74
2022/01/23 07:32:09;;;;;;;13.00;8.90;;;2.50;99.90;;;;;;5032502;28;20206;-75
2022/01/23 07:34:36;;;;;;;14.00;8.32;;;2.50;99.90;;;;;;5031848;28;20735;-73
2022/01/23 07:37:03;;;;;;;15.40;8.80;;;2.50;99.90;;;;;;5032435;28;20677;-72
2022/01/23 07:39:30;;;;;;;13.63;9.93;;;2.50;99.90;;;;;;5032264;28;20233;-72
2022/01/23 07:41:57;;;;;;;12.85;8.80;;;2.60;99.90;;;;;;5032784;28;20304;-73
2022/01/23 07:44:23;;;;;;;14.73;9.38;;;2.60;99.90;;;;;;5032048;28;20694;-73
2022/01/23 07:46:51;;;;;;;13.82;9.55;;;2.60;99.90;;;;;;5030001;28;20681;-70
2022/01/23 07:49:20;;;;;;;13.75;8.88;;;2.60;99.90;;;;;;5032306;28;20210;-70
2022/01/23 07:51:47;;;;;;;14.70;9.48;;;2.60;99.90;;;;;;5032255;28;20603;-72
2022/01/23 07:54:14;;;;;;;11.55;8.38;;;2.70;99.90;;;;;;5031037;28;20225;-72
2022/01/23 07:56:42;;;;;;;16.73;9.57;;;2.80;99.90;;;;;;5031427;28;20205;-72
2022/01/23 07:59:10;;;;;;;12.40;8.63;;;2.80;99.90;;;;;;5031836;28;20303;-70
2022/01/23 08:01:39;;;;;;;17.75;9.65;;;2.80;99.90;;;;;;5030536;28;21015;-72
2022/01/23 08:04:07;;;;;;;18.83;9.45;;;2.80;99.90;;;;;;5036352;28;20209;-71
2022/01/23 08:06:43;;;;;;;18.88;10.40;;;2.80;99.90;;;;;;5050673;28;20209;-72
2022/01/23 08:09:11;;;;;;;11.35;9.23;;;2.80;99.90;;;;;;5049882;28;20228;-72
2022/01/23 08:11:38;;;;;;;13.23;8.23;;;2.90;99.90;;;;;;5050372;28;20288;-72
2022/01/23 08:14:06;;;;;;;10.63;8.45;;;2.90;99.90;;;;;;5049653;28;20245;-72
2022/01/23 08:16:35;;;;;;;11.30;8.90;;;2.90;99.90;;;;;;5050037;28;20229;-73
2022/01/23 08:19:02;;;;;;;13.10;8.70;;;2.90;99.90;;;;;;5050131;28;20851;-73
2022/01/23 08:21:29;;;;;;;15.48;8.57;;;2.90;99.90;;;;;;5049733;28;20225;-72
2022/01/23 08:23:57;;;;;;;11.10;8.05;;;2.90;99.90;;;;;;5050266;28;20211;-73
2022/01/23 08:26:24;;;;;;;11.27;8.75;;;2.90;99.90;;;;;;5049518;28;20291;-72
2022/01/23 08:28:52;;;;;;;16.23;9.32;;;2.90;99.90;;;;;;5050767;28;20205;-73
2022/01/23 08:31:18;;;;;;;11.85;8.02;;;3.00;99.90;;;;;;5049995;28;20189;-72
2022/01/23 08:33:45;;;;;;;12.88;9.15;;;3.00;99.90;;;;;;5049856;28;20219;-74
2022/01/23 08:36:12;;;;;;;15.48;9.30;;;3.10;99.90;;;;;;5049641;28;20316;-74
2022/01/23 08:38:39;;;;;;;11.77;9.55;;;3.10;99.90;;;;;;5048605;28;20208;-73
2022/01/23 08:43:54;;;;;;;13.65;8.95;;;3.20;99.90;;;;;;5048945;28;20270;-73
2022/01/23 08:46:21;;;;;;;17.20;10.30;;;3.20;99.90;;;;;;5051540;28;20240;-73
2022/01/23 08:48:48;;;;;;;13.30;9.30;;;3.30;99.90;;;;;;5049271;28;20578;-73
2022/01/23 08:51:15;;;;;;;12.93;8.93;;;3.30;99.90;;;;;;5049024;28;20208;-73
2022/01/23 08:53:43;;;;;;;13.07;8.38;;;3.40;99.90;;;;;;5048476;28;20205;-73
2022/01/23 08:56:11;;;;;;;15.45;10.20;;;3.50;99.90;;;;;;5049264;28;20217;-73
2022/01/23 08:58:39;;;;;;;12.82;8.40;;;3.60;99.90;;;;;;5048856;28;20211;-73
2022/01/23 09:01:05;;;;;;;14.32;9.57;;;3.60;99.90;;;;;;5048844;28;20214;-72
2022/01/23 09:03:32;;;;;;;15.40;11.05;;;3.70;99.90;;;;;;5036527;28;20689;-72
2022/01/23 09:05:59;;;;;;;13.70;9.75;;;3.80;99.90;;;;;;5029388;28;20222;-72
2022/01/23 09:08:25;;;;;;;15.93;11.75;;;3.80;99.90;;;;;;5028593;28;20622;-73
2022/01/23 09:10:55;;;;;;;16.08;11.70;;;3.80;99.90;;;;;;5029202;28;20208;-74
2022/01/23 09:13:39;;;;;;;16.85;11.57;;;3.90;99.90;;;;;;5028710;28;20202;-74
2022/01/23 09:16:07;;;;;;;17.08;11.82;;;4.00;99.90;;;;;;5028715;28;20221;-73
2022/01/23 09:18:34;;;;;;;23.95;12.07;;;4.00;99.90;;;;;;5028710;28;20229;-74
2022/01/23 09:21:01;;;;;;;16.27;11.77;;;4.10;99.90;;;;;;5028846;28;20228;-71
2022/01/23 09:23:30;;;;;;;15.65;11.20;;;4.10;99.90;;;;;;5028160;28;20702;-74
2022/01/23 09:25:59;;;;;;;20.27;12.43;;;4.10;99.90;;;;;;5028941;28;20708;-74
2022/01/23 09:28:32;;;;;;;17.48;12.60;;;4.10;99.90;;;;;;5028438;28;20639;-73
2022/01/23 09:30:59;;;;;;;16.33;12.57;;;4.10;99.90;;;;;;5029331;28;20247;-73
2022/01/23 09:33:26;;;;;;;14.55;12.38;;;4.00;99.90;;;;;;5027078;28;20245;-73
2022/01/23 09:35:53;;;;;;;19.70;13.43;;;4.10;99.90;;;;;;5027681;28;20937;-74
2022/01/23 09:38:20;;;;;;;17.92;12.60;;;4.10;99.90;;;;;;5028539;28;20202;-70
2022/01/23 09:40:49;;;;;;;15.45;10.85;;;4.20;99.90;;;;;;5028110;28;20213;-73
2022/01/23 09:43:18;;;;;;;18.08;13.00;;;4.30;99.90;;;;;;5027992;28;20217;-70
2022/01/23 09:45:49;;;;;;;19.00;12.45;;;4.50;99.90;;;;;;5027839;28;20230;-71
2022/01/23 09:48:17;;;;;;;20.10;13.05;;;4.70;99.90;;;;;;5028301;28;20209;-69
2022/01/23 09:50:47;;;;;;;22.88;13.75;;;5.00;99.90;;;;;;5028021;28;20244;-70
2022/01/23 09:53:15;;;;;;;20.33;14.75;;;5.20;99.90;;;;;;5030242;28;20217;-70
2022/01/23 09:55:44;;;;;;;20.88;13.60;;;5.40;99.90;;;;;;5031811;28;20229;-69
2022/01/23 09:58:14;;;;;;;17.98;13.55;;;5.60;99.90;;;;;;5032166;28;20209;-74
2022/01/23 10:00:41;;;;;;;16.90;12.02;;;5.70;99.90;;;;;;5032087;28;20218;-73
2022/01/23 10:03:09;;;;;;;15.30;11.55;;;5.90;99.90;;;;;;5032182;28;20226;-75
2022/01/23 10:05:36;;;;;;;21.08;13.75;;;6.00;99.90;;;;;;5030943;28;20556;-74
2022/01/23 10:08:04;;;;;;;15.70;10.63;;;6.30;99.90;;;;;;5032573;28;20205;-74
2022/01/23 10:10:35;;;;;;;14.25;11.07;;;6.40;99.90;;;;;;5031785;28;20206;-74
2022/01/23 10:13:02;;;;;;;14.82;11.88;;;6.50;99.90;;;;;;5031369;28;20239;-76
2022/01/23 10:15:32;;;;;;;12.77;10.30;;;6.50;99.90;;;;;;5031490;28;20225;-74
2022/01/23 10:17:59;;;;;;;12.98;9.45;;;6.40;99.90;;;;;;5031799;28;20236;-74
2022/01/23 10:20:27;;;;;;;14.10;10.00;;;6.30;99.90;;;;;;5031281;28;20206;-74
2022/01/23 10:22:56;;;;;;;12.50;10.25;;;6.30;99.90;;;;;;5031363;28;20228;-75
2022/01/23 10:25:25;;;;;;;16.65;10.35;;;6.30;99.90;;;;;;5031312;28;20268;-73
2022/01/23 10:27:54;;;;;;;13.50;10.45;;;6.30;99.90;;;;;;5031492;28;20206;-74
2022/01/23 10:30:24;;;;;;;18.48;11.15;;;6.20;99.90;;;;;;5031422;28;20599;-73
2022/01/23 10:32:58;;;;;;;16.55;10.60;;;6.10;99.90;;;;;;5031420;28;20256;-73
2022/01/23 10:35:27;;;;;;;14.57;10.52;;;6.00;99.90;;;;;;5029977;28;20735;-73
2022/01/23 10:37:55;;;;;;;13.77;11.68;;;5.90;99.90;;;;;;5031639;28;20673;-74
2022/01/23 10:40:29;;;;;;;15.93;10.85;;;5.70;99.90;;;;;;5031296;28;20201;-73
2022/01/23 10:46:37;;;;;;;13.68;10.70;;;5.60;99.90;;;;;;5030254;28;20221;-74
2022/01/23 10:48:41;;;;;;;15.50;10.18;;;4.90;99.90;;;;;;5030754;28;20340;-73
2022/01/23 10:51:25;;;;;;;17.65;10.25;;;4.80;99.90;;;;;;5031322;28;20223;-74
2022/01/23 10:54:17;;;;;;;11.30;8.70;;;4.80;99.90;;;;;;5030710;28;20213;-73
2022/01/23 10:57:11;;;;;;;12.75;10.05;;;4.80;99.90;;;;;;5030751;28;20247;-74
2022/01/23 10:59:43;;;;;;;17.30;9.93;;;4.70;99.90;;;;;;4994616;28;20216;-74
2022/01/23 11:02:12;;;;;;;11.43;8.85;;;4.70;99.90;;;;;;5030588;28;20228;-74
2022/01/23 11:04:55;;;;;;;12.57;10.27;;;4.80;99.90;;;;;;5030321;28;20256;-74
2022/01/23 11:07:24;;;;;;;11.82;9.82;;;4.80;99.90;;;;;;5030531;28;20583;-73
2022/01/23 11:09:57;;;;;;;15.13;9.95;;;4.90;99.90;;;;;;5031070;28;20207;-73
2022/01/23 11:17:58;;;;;;;12.60;9.80;;;4.90;99.90;;;;;;5031389;28;20220;-72
2022/01/23 11:20:34;;;;;;;10.65;8.48;;;4.90;99.90;;;;;;5029916;28;20209;-73
2022/01/23 11:23:14;;;;;;;13.82;8.75;;;5.00;99.90;;;;;;5030190;28;20225;-75
2022/01/23 11:25:42;;;;;;;13.23;10.25;;;4.90;99.90;;;;;;5029484;28;20226;-73
2022/01/23 11:28:09;;;;;;;14.40;9.55;;;4.90;99.90;;;;;;5030635;28;20202;-73
2022/01/23 11:30:39;;;;;;;10.75;8.35;;;4.90;99.90;;;;;;5030344;28;20216;-73
2022/01/23 11:33:08;;;;;;;10.45;8.55;;;4.90;99.90;;;;;;5030411;28;20297;-73
2022/01/23 11:35:34;;;;;;;12.82;8.77;;;5.00;99.90;;;;;;5030833;28;20226;-73
2022/01/23 11:38:02;;;;;;;13.05;9.25;;;5.00;99.90;;;;;;5021692;28;20198;-75
2022/01/23 11:40:42;;;;;;;9.93;7.85;;;5.00;99.90;;;;;;5010740;28;20636;-72
2022/01/23 11:54:36;;;;;;;11.52;8.23;;;5.30;99.90;;;;;;5010578;28;20289;-75
2022/01/23 11:57:05;;;;;;;11.65;8.70;;;5.20;99.90;;;;;;5012377;28;20631;-74
2022/01/23 11:59:35;;;;;;;10.10;7.72;;;5.30;99.90;;;;;;5029544;28;20197;-74
2022/01/23 12:02:29;;;;;;;10.38;8.30;;;5.30;99.90;;;;;;5029763;28;20225;-75
2022/01/23 12:05:26;;;;;;;9.57;7.30;;;5.20;99.90;;;;;;5029885;28;20977;-75
2022/01/23 12:08:32;;;;;;;10.93;7.97;;;5.30;99.90;;;;;;5017931;28;20745;-75
2022/01/23 12:17:12;;;;;;;11.75;9.13;;;5.50;99.90;;;;;;5028515;28;20204;-74
2022/01/23 12:19:44;;;;;;;11.00;8.40;;;5.40;99.90;;;;;;5029122;28;20805;-73
2022/01/23 12:22:35;;;;;;;11.32;8.45;;;5.40;99.90;;;;;;5029530;28;20221;-73
2022/01/23 12:25:09;;;;;;;11.93;9.35;;;5.30;99.90;;;;;;5030060;28;20222;-73
2022/01/23 12:27:36;;;;;;;11.95;9.45;;;5.40;99.90;;;;;;5029111;28;20208;-73
2022/01/23 12:30:33;;;;;;;13.18;9.60;;;5.40;99.90;;;;;;5029643;28;20208;-73
2022/01/23 12:33:32;;;;;;;12.20;9.13;;;5.50;99.90;;;;;;5008718;28;20252;-75
2022/01/23 12:36:05;;;;;;;10.48;8.40;;;5.50;99.90;;;;;;5028772;28;20233;-74
2022/01/23 12:38:36;;;;;;;10.48;8.35;;;5.60;99.90;;;;;;5029179;28;20739;-74
2022/01/23 12:41:23;;;;;;;10.10;7.60;;;5.60;99.90;;;;;;5028877;28;20206;-74
2022/01/23 12:43:51;;;;;;;9.45;7.57;;;5.60;99.90;;;;;;5028804;28;20221;-74
2022/01/23 12:46:33;;;;;;;9.70;7.57;;;5.60;99.90;;;;;;5028733;28;20321;-75
2022/01/23 12:49:19;;;;;;;12.45;7.57;;;5.60;99.90;;;;;;5028473;28;20569;-74
2022/01/23 12:51:47;;;;;;;10.93;7.70;;;5.70;99.90;;;;;;5029020;28;20209;-75
2022/01/23 12:54:32;;;;;;;14.57;7.40;;;5.80;99.90;;;;;;5028207;28;20737;-75
2022/01/23 12:57:12;;;;;;;9.10;7.20;;;5.90;99.90;;;;;;5028147;28;20693;-75
2022/01/23 12:59:42;;;;;;;8.80;7.50;;;6.00;99.90;;;;;;5028016;28;20574;-75
2022/01/23 13:02:16;;;;;;;9.25;7.13;;;6.00;99.90;;;;;;5028422;28;20222;-75
2022/01/23 13:04:45;;;;;;;9.60;7.63;;;6.10;99.90;;;;;;5028605;28;20253;-75
2022/01/23 13:07:38;;;;;;;9.55;7.75;;;6.00;99.90;;;;;;5028624;28;20208;-75
2022/01/23 13:10:21;;;;;;;10.15;7.90;;;6.00;99.90;;;;;;5028579;28;20206;-75
2022/01/23 13:12:53;;;;;;;10.20;8.05;;;5.90;99.90;;;;;;5027635;28;20202;-74
2022/01/23 13:18:19;;;;;;;14.27;9.00;;;5.80;99.90;;;;;;5028389;28;20204;-75
2022/01/23 13:26:46;;;;;;;7.90;6.05;;;5.60;99.90;;;;;;5028132;28;20232;-75
2022/01/23 13:32:04;;;;;;;8.70;6.65;;;5.60;99.90;;;;;;5028456;28;20205;-74
2022/01/23 13:34:35;;;;;;;8.95;6.35;;;5.50;99.90;;;;;;5027790;28;20230;-75
2022/01/23 13:37:06;;;;;;;7.18;6.47;;;5.50;99.90;;;;;;5028752;28;20554;-74
2022/01/23 13:39:40;;;;;;;9.85;6.60;;;5.50;99.90;;;;;;5028155;28;20207;-74
2022/01/23 13:42:21;;;;;;;7.28;5.50;;;5.40;99.90;;;;;;5027592;28;20221;-74
2022/01/23 13:53:37;;;;;;;8.98;4.90;;;5.30;99.90;;;;;;5011685;28;20217;-74
2022/01/23 13:59:11;;;;;;;6.60;5.35;;;5.30;99.90;;;;;;4994645;28;20568;-74
2022/01/23 14:01:50;;;;;;;6.75;5.15;;;5.20;99.90;;;;;;5027854;28;20212;-74
2022/01/23 14:04:17;;;;;;;5.47;4.15;;;5.10;99.90;;;;;;5027217;28;20225;-74
2022/01/23 14:06:46;;;;;;;5.05;4.20;;;5.10;99.90;;;;;;5027614;28;20202;-74
2022/01/23 14:09:14;;;;;;;5.75;3.95;;;5.10;99.90;;;;;;5028300;28;20205;-74
2022/01/23 14:11:42;;;;;;;3.78;3.35;;;5.00;99.90;;;;;;5027181;28;20209;-73
2022/01/23 14:14:14;;;;;;;3.55;3.25;;;5.00;99.90;;;;;;5027578;28;20198;-74
2022/01/23 14:16:42;;;;;;;4.13;3.33;;;4.90;99.90;;;;;;5028075;28;20205;-74
2022/01/23 14:19:21;;;;;;;3.70;3.40;;;4.80;99.90;;;;;;5027943;28;20673;-73
2022/01/23 14:21:52;;;;;;;4.90;4.10;;;4.70;99.90;;;;;;5028089;28;20618;-74
2022/01/23 14:24:27;;;;;;;5.35;3.95;;;4.80;99.90;;;;;;5027019;28;20226;-74
2022/01/23 14:27:06;;;;;;;5.57;4.10;;;4.70;99.90;;;;;;5028143;28;20583;-74
2022/01/23 14:29:35;;;;;;;4.18;3.30;;;4.60;99.90;;;;;;5028095;28;20263;-73
2022/01/23 14:32:12;;;;;;;4.47;3.55;;;4.60;99.90;;;;;;5027354;28;20248;-73
2022/01/23 14:34:41;;;;;;;5.78;3.17;;;4.60;99.90;;;;;;5027906;28;21073;-74
2022/01/23 14:37:09;;;;;;;4.22;3.70;;;4.60;99.90;;;;;;5027529;28;20205;-73
2022/01/23 14:39:37;;;;;;;4.60;3.75;;;4.60;99.90;;;;;;5028238;28;20910;-73
2022/01/23 14:42:12;;;;;;;5.15;4.15;;;4.60;99.90;;;;;;5031273;28;20198;-77
2022/01/23 14:44:39;;;;;;;4.95;3.75;;;4.70;99.90;;;;;;5030945;28;20640;-74
2022/01/23 14:47:08;;;;;;;4.40;3.70;;;4.70;99.90;;;;;;5031031;28;20267;-74
2022/01/23 14:49:37;;;;;;;8.63;4.75;;;4.70;99.90;;;;;;5030940;28;20205;-74
2022/01/23 14:52:09;;;;;;;4.97;3.95;;;4.70;99.90;;;;;;5030230;28;20198;-74
2022/01/23 14:54:38;;;;;;;4.53;4.13;;;4.70;99.90;;;;;;5030931;28;20226;-74
2022/01/23 14:57:07;;;;;;;5.97;4.30;;;4.70;99.90;;;;;;5031177;28;20578;-74
2022/01/23 14:59:37;;;;;;;4.43;3.70;;;4.60;99.90;;;;;;5030793;28;20220;-74
2022/01/23 15:02:05;;;;;;;5.50;4.40;;;4.60;99.90;;;;;;5030528;28;20217;-74
2022/01/23 15:04:40;;;;;;;5.53;4.43;;;4.60;99.90;;;;;;5030743;28;20609;-74
2022/01/23 15:07:13;;;;;;;4.97;3.78;;;4.60;99.90;;;;;;5031050;28;20221;-74
2022/01/23 15:09:42;;;;;;;5.15;4.45;;;4.60;99.90;;;;;;5030010;28;20669;-74
2022/01/23 15:12:09;;;;;;;7.00;4.95;;;4.60;99.90;;;;;;5030506;28;20442;-74
2022/01/23 15:14:36;;;;;;;5.28;4.78;;;4.60;99.90;;;;;;5030327;28;20229;-74
2022/01/23 15:17:03;;;;;;;4.88;4.07;;;4.50;99.90;;;;;;5030652;28;20212;-74
2022/01/23 15:19:30;;;;;;;4.72;3.60;;;4.50;99.90;;;;;;5030453;28;20206;-74
2022/01/23 15:21:57;;;;;;;4.55;3.92;;;4.50;99.90;;;;;;5030238;28;20681;-74
2022/01/23 15:24:23;;;;;;;5.00;3.88;;;4.40;99.90;;;;;;5029574;28;20230;-74
2022/01/23 15:26:52;;;;;;;5.35;4.00;;;4.40;99.90;;;;;;5030419;28;20684;-74
2022/01/23 15:29:18;;;;;;;5.07;4.18;;;4.50;99.90;;;;;;5030032;28;20297;-74
2022/01/23 15:31:47;;;;;;;4.70;3.80;;;4.40;99.90;;;;;;5030245;28;20618;-74
2022/01/23 15:34:15;;;;;;;5.95;4.40;;;4.40;99.90;;;;;;5030438;28;20201;-74
2022/01/23 15:36:42;;;;;;;6.18;5.47;;;4.40;99.90;;;;;;5029782;28;20625;-74
2022/01/23 15:39:09;;;;;;;6.22;4.97;;;4.40;99.90;;;;;;5030207;28;20596;-73
2022/01/23 15:41:36;;;;;;;6.20;4.10;;;4.30;99.90;;;;;;5030047;28;20210;-73
2022/01/23 15:44:04;;;;;;;7.15;4.07;;;4.30;99.90;;;;;;5029839;28;20576;-72
2022/01/23 15:46:31;;;;;;;4.30;3.47;;;4.30;99.90;;;;;;5029836;28;20670;-74
2022/01/23 15:48:58;;;;;;;4.88;3.83;;;4.30;99.90;;;;;;5030094;28;20205;-74
2022/01/23 15:51:25;;;;;;;4.63;3.97;;;4.30;99.90;;;;;;5031954;28;20300;-74
2022/01/23 15:53:51;;;;;;;5.25;4.30;;;4.30;99.90;;;;;;5029416;28;20748;-74
2022/01/23 15:56:18;;;;;;;4.30;3.90;;;4.30;99.90;;;;;;5029417;28;20228;-74
2022/01/23 15:58:45;;;;;;;4.50;3.70;;;4.20;99.90;;;;;;5029778;28;20681;-74